Hovedside
METAR-TAF:

METAR-TAF

Lufthavner :

Felts Field Airport

Spokane, Washington, USA

breddegrad: 47-41-08N, lengdegrad: 117-19-13W, høyde over havet: 595 m

Gjeldene værobservasjon

Denne rapporten ble laget for 56 minutter siden, klokken 03:53 UTC
Vind 4 kt fra Nord-nordøst
Temperatur 8°C
Luftfuktighet 71%
Trykk 1017 hPa
Sikt: 16.1 km
Skyfri himmel

METAR: KSFF 220353Z AUTO 03004KT 10SM CLR 08/03 A3003 RMK AO2 SLP176 T00780033

Tid: 21:49 (04:49 UTC)

Varsel

Denne rapporten ble laget for 5 timer og 9 minutter siden, klokken 23:40 UTC
Varsel gyldig fra 22. klokken 00 UTC til 22. klokken 24 UTC
Vind 3 kt fra skiftende retning
Sikt: 10 km
Få skyer i en høyde av 25000 ft
Fra 22. klokken 1300 UTC
Vind 3 kt fra skiftende retning
Sikt: 3.2 km
Skyfri himmel
dis
Fra 22. klokken 1500 UTC
Vind 4 kt fra skiftende retning
Sikt: 10 km
Få skyer i en høyde av 25000 ft

TAF: KSFF 212340Z 2200/2224 VRB03KT P6SM FEW250 FM221300 VRB03KT 2SM BR SKC FM221500 VRB04KT P6SM FEW250

Værobservasjoner og værvarsel for over 4000 flyplasser (METAR- og TAF-rapporter).

Tilgjengelige stasjoner er representert av de røde og gule prikkene på kartet.

Hold musepekeren over prikken for å se navnet på stasjonen.

Klikk så for å se værobservasjoner og -varsler.

For å forandre kartet kan du klikke på den grønne knappen med svart kryss for å zoome inn, på den grønne knappen med strek for å zoome ut, eller på de grønne pilene for å se tilstøtende kart.


METAR-TAF: